sensor_id;sensor_type;location;lat;lon;timestamp;P1;durP1;ratioP1;P2;durP2;ratioP2
33593;SDS011;19920;52.242;20.940;2023-02-11T00:00:53;45.55;;;20.58;;
33593;SDS011;19920;52.242;20.940;2023-02-11T00:03:18;41.58;;;20.05;;
33593;SDS011;19920;52.242;20.940;2023-02-11T00:05:44;47.75;;;20.02;;
33593;SDS011;19920;52.242;20.940;2023-02-11T00:08:10;45.03;;;19.83;;
33593;SDS011;19920;52.242;20.940;2023-02-11T00:10:40;41.33;;;19.48;;
33593;SDS011;19920;52.242;20.940;2023-02-11T00:13:06;40.25;;;19.30;;
33593;SDS011;19920;52.242;20.940;2023-02-11T00:15:32;40.08;;;18.85;;
33593;SDS011;19920;52.242;20.940;2023-02-11T00:17:58;37.35;;;17.73;;
33593;SDS011;19920;52.242;20.940;2023-02-11T00:20:23;34.97;;;17.10;;
33593;SDS011;19920;52.242;20.940;2023-02-11T00:22:49;38.00;;;16.52;;
33593;SDS011;19920;52.242;20.940;2023-02-11T00:25:14;36.35;;;16.08;;
33593;SDS011;19920;52.242;20.940;2023-02-11T00:27:40;33.80;;;15.43;;
33593;SDS011;19920;52.242;20.940;2023-02-11T00:30:06;28.33;;;14.52;;
33593;SDS011;19920;52.242;20.940;2023-02-11T00:32:32;30.35;;;13.85;;
33593;SDS011;19920;52.242;20.940;2023-02-11T00:34:57;30.50;;;14.18;;
33593;SDS011;19920;52.242;20.940;2023-02-11T00:37:23;29.60;;;13.82;;
33593;SDS011;19920;52.242;20.940;2023-02-11T00:39:48;33.35;;;14.15;;
33593;SDS011;19920;52.242;20.940;2023-02-11T00:42:14;30.58;;;14.40;;
33593;SDS011;19920;52.242;20.940;2023-02-11T00:44:40;30.90;;;14.48;;
33593;SDS011;19920;52.242;20.940;2023-02-11T00:47:05;31.33;;;13.95;;
33593;SDS011;19920;52.242;20.940;2023-02-11T00:49:31;36.35;;;15.00;;
33593;SDS011;19920;52.242;20.940;2023-02-11T00:51:57;28.55;;;14.95;;
33593;SDS011;19920;52.242;20.940;2023-02-11T00:54:22;28.88;;;14.20;;
33593;SDS011;19920;52.242;20.940;2023-02-11T00:56:48;35.30;;;15.25;;
33593;SDS011;19920;52.242;20.940;2023-02-11T00:59:13;31.98;;;14.82;;
33593;SDS011;19920;52.242;20.940;2023-02-11T01:01:39;31.13;;;15.50;;
33593;SDS011;19920;52.242;20.940;2023-02-11T01:04:05;34.47;;;14.82;;
33593;SDS011;19920;52.242;20.940;2023-02-11T01:06:30;32.38;;;15.70;;
33593;SDS011;19920;52.242;20.940;2023-02-11T01:08:56;32.88;;;15.13;;
33593;SDS011;19920;52.242;20.940;2023-02-11T01:11:22;34.88;;;16.05;;
33593;SDS011;19920;52.242;20.940;2023-02-11T01:13:47;33.03;;;15.93;;
33593;SDS011;19920;52.242;20.940;2023-02-11T01:16:14;30.40;;;15.43;;
33593;SDS011;19920;52.242;20.940;2023-02-11T01:18:39;29.15;;;14.57;;
33593;SDS011;19920;52.242;20.940;2023-02-11T01:21:08;31.38;;;14.70;;
33593;SDS011;19920;52.242;20.940;2023-02-11T01:23:34;33.00;;;15.85;;
33593;SDS011;19920;52.242;20.940;2023-02-11T01:25:59;31.55;;;13.23;;
33593;SDS011;19920;52.242;20.940;2023-02-11T01:28:26;31.25;;;14.65;;
33593;SDS011;19920;52.242;20.940;2023-02-11T01:30:53;34.70;;;14.65;;
33593;SDS011;19920;52.242;20.940;2023-02-11T01:33:19;30.73;;;12.93;;
33593;SDS011;19920;52.242;20.940;2023-02-11T01:35:46;29.13;;;14.48;;
33593;SDS011;19920;52.242;20.940;2023-02-11T01:38:30;32.72;;;14.13;;
33593;SDS011;19920;52.242;20.940;2023-02-11T01:40:57;31.33;;;13.40;;
33593;SDS011;19920;52.242;20.940;2023-02-11T01:43:25;27.30;;;13.35;;
33593;SDS011;19920;52.242;20.940;2023-02-11T01:45:55;24.33;;;12.48;;
33593;SDS011;19920;52.242;20.940;2023-02-11T01:48:37;27.50;;;13.02;;
33593;SDS011;19920;52.242;20.940;2023-02-11T01:51:13;28.27;;;12.30;;
33593;SDS011;19920;52.242;20.940;2023-02-11T01:53:44;27.83;;;13.15;;
33593;SDS011;19920;52.242;20.940;2023-02-11T01:56:30;32.38;;;13.27;;
33593;SDS011;19920;52.242;20.940;2023-02-11T01:59:21;27.25;;;12.93;;
33593;SDS011;19920;52.242;20.940;2023-02-11T02:01:53;28.23;;;12.85;;
33593;SDS011;19920;52.242;20.940;2023-02-11T02:04:22;29.52;;;13.68;;
33593;SDS011;19920;52.242;20.940;2023-02-11T02:06:56;30.67;;;13.63;;
33593;SDS011;19920;52.242;20.940;2023-02-11T02:09:29;33.42;;;14.35;;
33593;SDS011;19920;52.242;20.940;2023-02-11T02:12:02;33.85;;;14.82;;
33593;SDS011;19920;52.242;20.940;2023-02-11T02:14:27;36.22;;;14.82;;
33593;SDS011;19920;52.242;20.940;2023-02-11T02:16:53;29.45;;;14.43;;
33593;SDS011;19920;52.242;20.940;2023-02-11T02:22:07;31.63;;;14.15;;
33593;SDS011;19920;52.242;20.940;2023-02-11T02:27:49;36.33;;;14.07;;
33593;SDS011;19920;52.242;20.940;2023-02-11T02:38:59;31.92;;;14.40;;
33593;SDS011;19920;52.242;20.940;2023-02-11T02:41:45;31.80;;;14.38;;
33593;SDS011;19920;52.242;20.940;2023-02-11T02:44:13;31.95;;;14.52;;
33593;SDS011;19920;52.242;20.940;2023-02-11T02:46:39;29.73;;;13.80;;
33593;SDS011;19920;52.242;20.940;2023-02-11T02:49:05;29.63;;;13.68;;
33593;SDS011;19920;52.242;20.940;2023-02-11T03:02:55;28.85;;;13.25;;
33593;SDS011;19920;52.242;20.940;2023-02-11T03:08:42;28.60;;;12.57;;
33593;SDS011;19920;52.242;20.940;2023-02-11T03:11:11;27.40;;;12.60;;
33593;SDS011;19920;52.242;20.940;2023-02-11T03:16:08;27.70;;;12.13;;
33593;SDS011;19920;52.242;20.940;2023-02-11T03:18:38;22.50;;;11.65;;
33593;SDS011;19920;52.242;20.940;2023-02-11T03:21:08;27.25;;;11.93;;
33593;SDS011;19920;52.242;20.940;2023-02-11T03:23:41;23.60;;;11.90;;
33593;SDS011;19920;52.242;20.940;2023-02-11T03:26:16;25.15;;;12.13;;
33593;SDS011;19920;52.242;20.940;2023-02-11T03:31:23;26.83;;;11.88;;
33593;SDS011;19920;52.242;20.940;2023-02-11T03:36:44;27.17;;;11.50;;
33593;SDS011;19920;52.242;20.940;2023-02-11T03:39:34;24.92;;;11.60;;
33593;SDS011;19920;52.242;20.940;2023-02-11T03:42:03;23.73;;;12.13;;
33593;SDS011;19920;52.242;20.940;2023-02-11T03:44:33;24.70;;;12.93;;
33593;SDS011;19920;52.242;20.940;2023-02-11T03:47:01;28.48;;;11.98;;
33593;SDS011;19920;52.242;20.940;2023-02-11T03:49:31;26.42;;;11.32;;
33593;SDS011;19920;52.242;20.940;2023-02-11T03:51:59;28.30;;;11.57;;
33593;SDS011;19920;52.242;20.940;2023-02-11T03:54:27;24.05;;;13.05;;
33593;SDS011;19920;52.242;20.940;2023-02-11T03:56:55;25.40;;;12.48;;
33593;SDS011;19920;52.242;20.940;2023-02-11T03:59:23;25.33;;;12.73;;
33593;SDS011;19920;52.242;20.940;2023-02-11T04:01:49;29.27;;;12.95;;
33593;SDS011;19920;52.242;20.940;2023-02-11T04:04:15;27.00;;;13.40;;
33593;SDS011;19920;52.242;20.940;2023-02-11T04:06:40;28.23;;;13.57;;
33593;SDS011;19920;52.242;20.940;2023-02-11T04:09:07;28.85;;;14.23;;
33593;SDS011;19920;52.242;20.940;2023-02-11T04:11:33;31.27;;;14.32;;
33593;SDS011;19920;52.242;20.940;2023-02-11T04:13:59;30.02;;;15.18;;
33593;SDS011;19920;52.242;20.940;2023-02-11T04:16:24;29.95;;;14.55;;
33593;SDS011;19920;52.242;20.940;2023-02-11T04:18:50;33.60;;;15.55;;
33593;SDS011;19920;52.242;20.940;2023-02-11T04:21:16;30.10;;;14.40;;
33593;SDS011;19920;52.242;20.940;2023-02-11T04:23:41;30.95;;;15.40;;
33593;SDS011;19920;52.242;20.940;2023-02-11T04:26:07;30.25;;;15.45;;
33593;SDS011;19920;52.242;20.940;2023-02-11T04:28:32;32.00;;;15.65;;
33593;SDS011;19920;52.242;20.940;2023-02-11T04:30:58;34.13;;;15.88;;
33593;SDS011;19920;52.242;20.940;2023-02-11T04:33:24;31.48;;;14.85;;
33593;SDS011;19920;52.242;20.940;2023-02-11T04:35:50;34.85;;;15.60;;
33593;SDS011;19920;52.242;20.940;2023-02-11T04:38:15;29.08;;;15.05;;
33593;SDS011;19920;52.242;20.940;2023-02-11T04:40:41;32.80;;;14.80;;
33593;SDS011;19920;52.242;20.940;2023-02-11T04:43:07;33.20;;;15.68;;
33593;SDS011;19920;52.242;20.940;2023-02-11T04:45:33;33.25;;;16.25;;
33593;SDS011;19920;52.242;20.940;2023-02-11T04:48:00;31.85;;;15.80;;
33593;SDS011;19920;52.242;20.940;2023-02-11T04:50:26;32.75;;;16.25;;
33593;SDS011;19920;52.242;20.940;2023-02-11T04:52:52;38.83;;;16.58;;
33593;SDS011;19920;52.242;20.940;2023-02-11T04:55:18;33.15;;;17.35;;
33593;SDS011;19920;52.242;20.940;2023-02-11T04:57:44;32.30;;;16.92;;
33593;SDS011;19920;52.242;20.940;2023-02-11T05:00:09;35.75;;;16.85;;
33593;SDS011;19920;52.242;20.940;2023-02-11T05:02:35;32.58;;;15.80;;
33593;SDS011;19920;52.242;20.940;2023-02-11T05:05:01;36.40;;;16.95;;
33593;SDS011;19920;52.242;20.940;2023-02-11T05:07:27;33.00;;;16.27;;
33593;SDS011;19920;52.242;20.940;2023-02-11T05:09:53;32.80;;;16.88;;
33593;SDS011;19920;52.242;20.940;2023-02-11T05:12:18;33.28;;;16.63;;
33593;SDS011;19920;52.242;20.940;2023-02-11T05:14:44;37.05;;;17.95;;
33593;SDS011;19920;52.242;20.940;2023-02-11T05:17:09;37.58;;;17.63;;
33593;SDS011;19920;52.242;20.940;2023-02-11T05:19:35;32.47;;;16.65;;
33593;SDS011;19920;52.242;20.940;2023-02-11T05:22:01;36.10;;;17.05;;
33593;SDS011;19920;52.242;20.940;2023-02-11T05:24:26;36.72;;;17.60;;
33593;SDS011;19920;52.242;20.940;2023-02-11T05:26:52;34.15;;;17.00;;
33593;SDS011;19920;52.242;20.940;2023-02-11T05:29:17;31.00;;;16.20;;
33593;SDS011;19920;52.242;20.940;2023-02-11T05:31:44;36.55;;;17.10;;
33593;SDS011;19920;52.242;20.940;2023-02-11T05:34:10;34.33;;;16.98;;
33593;SDS011;19920;52.242;20.940;2023-02-11T05:36:35;34.30;;;17.35;;
33593;SDS011;19920;52.242;20.940;2023-02-11T05:39:01;36.05;;;16.95;;
33593;SDS011;19920;52.242;20.940;2023-02-11T05:41:27;37.83;;;17.42;;
33593;SDS011;19920;52.242;20.940;2023-02-11T05:43:52;34.53;;;17.42;;
33593;SDS011;19920;52.242;20.940;2023-02-11T05:46:18;32.97;;;16.98;;
33593;SDS011;19920;52.242;20.940;2023-02-11T05:48:44;34.15;;;17.23;;
33593;SDS011;19920;52.242;20.940;2023-02-11T05:51:09;38.10;;;18.33;;
33593;SDS011;19920;52.242;20.940;2023-02-11T05:53:35;36.60;;;18.73;;
33593;SDS011;19920;52.242;20.940;2023-02-11T05:56:01;34.30;;;17.58;;
33593;SDS011;19920;52.242;20.940;2023-02-11T05:58:26;37.50;;;17.45;;
33593;SDS011;19920;52.242;20.940;2023-02-11T06:00:52;35.53;;;17.88;;
33593;SDS011;19920;52.242;20.940;2023-02-11T06:03:18;37.60;;;18.00;;
33593;SDS011;19920;52.242;20.940;2023-02-11T06:05:44;34.30;;;18.05;;
33593;SDS011;19920;52.242;20.940;2023-02-11T06:08:10;34.72;;;16.98;;
33593;SDS011;19920;52.242;20.940;2023-02-11T06:10:36;34.05;;;17.38;;
33593;SDS011;19920;52.242;20.940;2023-02-11T06:13:01;34.05;;;17.40;;
33593;SDS011;19920;52.242;20.940;2023-02-11T06:15:27;34.13;;;17.88;;
33593;SDS011;19920;52.242;20.940;2023-02-11T06:17:53;36.47;;;17.65;;
33593;SDS011;19920;52.242;20.940;2023-02-11T06:20:18;36.55;;;17.88;;
33593;SDS011;19920;52.242;20.940;2023-02-11T06:22:44;36.35;;;18.35;;
33593;SDS011;19920;52.242;20.940;2023-02-11T06:25:10;34.55;;;17.73;;
33593;SDS011;19920;52.242;20.940;2023-02-11T06:27:37;34.15;;;17.02;;
33593;SDS011;19920;52.242;20.940;2023-02-11T06:30:03;36.58;;;18.50;;
33593;SDS011;19920;52.242;20.940;2023-02-11T06:32:30;38.17;;;18.58;;
33593;SDS011;19920;52.242;20.940;2023-02-11T06:34:55;36.35;;;17.92;;
33593;SDS011;19920;52.242;20.940;2023-02-11T06:37:21;36.78;;;17.95;;
33593;SDS011;19920;52.242;20.940;2023-02-11T06:39:46;37.47;;;18.15;;
33593;SDS011;19920;52.242;20.940;2023-02-11T06:42:12;38.58;;;19.20;;
33593;SDS011;19920;52.242;20.940;2023-02-11T06:44:38;36.13;;;19.15;;
33593;SDS011;19920;52.242;20.940;2023-02-11T06:47:03;37.58;;;19.38;;
33593;SDS011;19920;52.242;20.940;2023-02-11T06:49:29;38.10;;;19.45;;
33593;SDS011;19920;52.242;20.940;2023-02-11T06:51:55;35.05;;;19.02;;
33593;SDS011;19920;52.242;20.940;2023-02-11T06:54:20;36.65;;;18.63;;
33593;SDS011;19920;52.242;20.940;2023-02-11T06:56:46;36.67;;;18.98;;
33593;SDS011;19920;52.242;20.940;2023-02-11T06:59:15;40.70;;;19.98;;
33593;SDS011;19920;52.242;20.940;2023-02-11T07:01:42;37.70;;;19.63;;
33593;SDS011;19920;52.242;20.940;2023-02-11T07:04:08;40.92;;;20.98;;
33593;SDS011;19920;52.242;20.940;2023-02-11T07:06:33;36.88;;;19.85;;
33593;SDS011;19920;52.242;20.940;2023-02-11T07:09:01;39.25;;;20.88;;
33593;SDS011;19920;52.242;20.940;2023-02-11T07:11:28;39.60;;;19.80;;
33593;SDS011;19920;52.242;20.940;2023-02-11T07:13:54;38.60;;;20.08;;
33593;SDS011;19920;52.242;20.940;2023-02-11T07:16:23;41.88;;;20.23;;
33593;SDS011;19920;52.242;20.940;2023-02-11T07:18:49;39.30;;;20.60;;
33593;SDS011;19920;52.242;20.940;2023-02-11T07:21:16;41.90;;;20.42;;
33593;SDS011;19920;52.242;20.940;2023-02-11T07:23:43;46.40;;;21.80;;
33593;SDS011;19920;52.242;20.940;2023-02-11T07:26:10;41.20;;;20.75;;
33593;SDS011;19920;52.242;20.940;2023-02-11T07:28:37;38.88;;;20.17;;
33593;SDS011;19920;52.242;20.940;2023-02-11T07:33:37;43.03;;;21.05;;
33593;SDS011;19920;52.242;20.940;2023-02-11T07:36:05;39.60;;;20.70;;
33593;SDS011;19920;52.242;20.940;2023-02-11T07:38:32;42.33;;;22.38;;
33593;SDS011;19920;52.242;20.940;2023-02-11T07:41:03;44.63;;;22.05;;
33593;SDS011;19920;52.242;20.940;2023-02-11T07:43:35;43.33;;;23.63;;
33593;SDS011;19920;52.242;20.940;2023-02-11T07:46:02;48.50;;;23.42;;
33593;SDS011;19920;52.242;20.940;2023-02-11T07:48:29;43.15;;;23.63;;
33593;SDS011;19920;52.242;20.940;2023-02-11T07:50:55;46.03;;;24.10;;
33593;SDS011;19920;52.242;20.940;2023-02-11T07:53:28;47.97;;;24.13;;
33593;SDS011;19920;52.242;20.940;2023-02-11T07:55:54;49.78;;;24.88;;
33593;SDS011;19920;52.242;20.940;2023-02-11T07:58:19;46.20;;;24.10;;
33593;SDS011;19920;52.242;20.940;2023-02-11T08:00:45;50.30;;;24.05;;
33593;SDS011;19920;52.242;20.940;2023-02-11T08:03:10;45.95;;;23.63;;
33593;SDS011;19920;52.242;20.940;2023-02-11T08:05:36;49.35;;;25.05;;
33593;SDS011;19920;52.242;20.940;2023-02-11T08:08:03;53.22;;;25.60;;
33593;SDS011;19920;52.242;20.940;2023-02-11T08:10:28;47.80;;;24.17;;
33593;SDS011;19920;52.242;20.940;2023-02-11T08:12:54;52.22;;;24.95;;
33593;SDS011;19920;52.242;20.940;2023-02-11T08:15:19;46.78;;;25.02;;
33593;SDS011;19920;52.242;20.940;2023-02-11T08:17:45;50.88;;;26.13;;
33593;SDS011;19920;52.242;20.940;2023-02-11T08:20:11;45.20;;;23.83;;
33593;SDS011;19920;52.242;20.940;2023-02-11T08:22:36;52.50;;;26.73;;
33593;SDS011;19920;52.242;20.940;2023-02-11T08:25:02;50.45;;;25.20;;
33593;SDS011;19920;52.242;20.940;2023-02-11T08:27:28;49.85;;;24.50;;
33593;SDS011;19920;52.242;20.940;2023-02-11T08:29:54;58.25;;;27.50;;
33593;SDS011;19920;52.242;20.940;2023-02-11T08:32:20;50.40;;;25.17;;
33593;SDS011;19920;52.242;20.940;2023-02-11T08:34:52;53.03;;;26.27;;
33593;SDS011;19920;52.242;20.940;2023-02-11T08:37:18;59.07;;;26.73;;
33593;SDS011;19920;52.242;20.940;2023-02-11T08:39:44;50.08;;;26.20;;
33593;SDS011;19920;52.242;20.940;2023-02-11T08:42:11;50.17;;;25.60;;
33593;SDS011;19920;52.242;20.940;2023-02-11T08:44:39;53.50;;;27.70;;
33593;SDS011;19920;52.242;20.940;2023-02-11T08:47:05;54.60;;;25.38;;
33593;SDS011;19920;52.242;20.940;2023-02-11T08:49:30;51.33;;;26.60;;
33593;SDS011;19920;52.242;20.940;2023-02-11T08:51:57;54.38;;;25.92;;
33593;SDS011;19920;52.242;20.940;2023-02-11T08:54:27;52.45;;;26.73;;
33593;SDS011;19920;52.242;20.940;2023-02-11T08:56:54;52.55;;;26.45;;
33593;SDS011;19920;52.242;20.940;2023-02-11T08:59:19;51.80;;;25.52;;
33593;SDS011;19920;52.242;20.940;2023-02-11T09:01:45;52.13;;;27.08;;
33593;SDS011;19920;52.242;20.940;2023-02-11T09:04:11;49.30;;;26.17;;
33593;SDS011;19920;52.242;20.940;2023-02-11T09:06:37;51.20;;;25.55;;
33593;SDS011;19920;52.242;20.940;2023-02-11T09:09:03;52.05;;;25.42;;
33593;SDS011;19920;52.242;20.940;2023-02-11T09:11:30;49.25;;;25.25;;
33593;SDS011;19920;52.242;20.940;2023-02-11T09:13:59;50.00;;;26.53;;
33593;SDS011;19920;52.242;20.940;2023-02-11T09:16:26;50.15;;;25.25;;
33593;SDS011;19920;52.242;20.940;2023-02-11T09:18:54;54.00;;;26.80;;
33593;SDS011;19920;52.242;20.940;2023-02-11T09:21:20;47.70;;;24.55;;
33593;SDS011;19920;52.242;20.940;2023-02-11T09:23:47;51.08;;;25.45;;
33593;SDS011;19920;52.242;20.940;2023-02-11T09:28:38;52.30;;;27.08;;
33593;SDS011;19920;52.242;20.940;2023-02-11T09:31:04;52.80;;;25.88;;
33593;SDS011;19920;52.242;20.940;2023-02-11T09:33:31;47.20;;;25.15;;
33593;SDS011;19920;52.242;20.940;2023-02-11T09:35:59;50.67;;;24.80;;
33593;SDS011;19920;52.242;20.940;2023-02-11T09:38:34;50.67;;;25.80;;
33593;SDS011;19920;52.242;20.940;2023-02-11T09:40:59;46.53;;;24.67;;
33593;SDS011;19920;52.242;20.940;2023-02-11T09:43:38;47.33;;;25.88;;
33593;SDS011;19920;52.242;20.940;2023-02-11T09:46:13;51.58;;;25.63;;
33593;SDS011;19920;52.242;20.940;2023-02-11T09:48:41;52.50;;;27.52;;
33593;SDS011;19920;52.242;20.940;2023-02-11T09:51:13;52.28;;;26.70;;
33593;SDS011;19920;52.242;20.940;2023-02-11T09:53:44;52.33;;;27.13;;
33593;SDS011;19920;52.242;20.940;2023-02-11T09:56:12;50.97;;;25.83;;
33593;SDS011;19920;52.242;20.940;2023-02-11T09:58:40;56.40;;;27.90;;
33593;SDS011;19920;52.242;20.940;2023-02-11T10:01:11;51.00;;;27.33;;
33593;SDS011;19920;52.242;20.940;2023-02-11T10:07:05;55.50;;;26.42;;
33593;SDS011;19920;52.242;20.940;2023-02-11T10:23:41;54.15;;;28.33;;
33593;SDS011;19920;52.242;20.940;2023-02-11T10:26:16;53.88;;;28.05;;
33593;SDS011;19920;52.242;20.940;2023-02-11T10:28:44;57.63;;;29.08;;
33593;SDS011;19920;52.242;20.940;2023-02-11T10:31:13;56.97;;;28.83;;
33593;SDS011;19920;52.242;20.940;2023-02-11T10:36:11;50.75;;;27.23;;
33593;SDS011;19920;52.242;20.940;2023-02-11T10:38:38;48.63;;;26.23;;
33593;SDS011;19920;52.242;20.940;2023-02-11T10:41:04;56.53;;;28.50;;
33593;SDS011;19920;52.242;20.940;2023-02-11T10:43:31;58.25;;;27.85;;
33593;SDS011;19920;52.242;20.940;2023-02-11T10:45:57;54.95;;;27.83;;
33593;SDS011;19920;52.242;20.940;2023-02-11T10:51:23;55.05;;;27.30;;
33593;SDS011;19920;52.242;20.940;2023-02-11T10:54:16;54.33;;;28.27;;
33593;SDS011;19920;52.242;20.940;2023-02-11T10:56:46;56.85;;;28.20;;
33593;SDS011;19920;52.242;20.940;2023-02-11T11:01:55;53.50;;;28.08;;
33593;SDS011;19920;52.242;20.940;2023-02-11T11:07:49;55.40;;;26.83;;
33593;SDS011;19920;52.242;20.940;2023-02-11T11:17:22;63.35;;;29.92;;
33593;SDS011;19920;52.242;20.940;2023-02-11T11:19:49;66.90;;;31.33;;
33593;SDS011;19920;52.242;20.940;2023-02-11T11:22:19;60.17;;;30.75;;
33593;SDS011;19920;52.242;20.940;2023-02-11T11:24:46;64.07;;;30.95;;
33593;SDS011;19920;52.242;20.940;2023-02-11T11:27:19;64.85;;;29.58;;
33593;SDS011;19920;52.242;20.940;2023-02-11T11:29:51;72.28;;;32.90;;
33593;SDS011;19920;52.242;20.940;2023-02-11T11:34:53;70.90;;;34.40;;
33593;SDS011;19920;52.242;20.940;2023-02-11T11:37:33;69.93;;;32.35;;
33593;SDS011;19920;52.242;20.940;2023-02-11T11:40:09;73.75;;;33.85;;
33593;SDS011;19920;52.242;20.940;2023-02-11T11:42:40;76.13;;;33.83;;
33593;SDS011;19920;52.242;20.940;2023-02-11T11:47:47;69.93;;;33.55;;
33593;SDS011;19920;52.242;20.940;2023-02-11T11:53:44;74.15;;;34.10;;
33593;SDS011;19920;52.242;20.940;2023-02-11T11:56:26;67.63;;;33.55;;
33593;SDS011;19920;52.242;20.940;2023-02-11T11:59:09;75.55;;;34.22;;
33593;SDS011;19920;52.242;20.940;2023-02-11T12:02:10;77.15;;;35.55;;
33593;SDS011;19920;52.242;20.940;2023-02-11T12:07:46;73.30;;;32.15;;
33593;SDS011;19920;52.242;20.940;2023-02-11T12:10:23;75.78;;;34.28;;
33593;SDS011;19920;52.242;20.940;2023-02-11T12:13:04;72.13;;;35.03;;
33593;SDS011;19920;52.242;20.940;2023-02-11T12:15:55;78.25;;;35.38;;
33593;SDS011;19920;52.242;20.940;2023-02-11T12:26:19;73.78;;;35.28;;
33593;SDS011;19920;52.242;20.940;2023-02-11T12:29:07;74.85;;;35.45;;
33593;SDS011;19920;52.242;20.940;2023-02-11T12:34:38;75.43;;;34.50;;
33593;SDS011;19920;52.242;20.940;2023-02-11T12:37:31;69.97;;;35.47;;
33593;SDS011;19920;52.242;20.940;2023-02-11T12:43:02;72.35;;;34.15;;
33593;SDS011;19920;52.242;20.940;2023-02-11T12:59:28;68.55;;;33.42;;
33593;SDS011;19920;52.242;20.940;2023-02-11T13:01:59;72.97;;;33.65;;
33593;SDS011;19920;52.242;20.940;2023-02-11T13:04:38;69.20;;;33.63;;
33593;SDS011;19920;52.242;20.940;2023-02-11T13:07:10;73.88;;;34.53;;
33593;SDS011;19920;52.242;20.940;2023-02-11T13:09:44;77.35;;;36.53;;
33593;SDS011;19920;52.242;20.940;2023-02-11T13:12:15;70.82;;;34.83;;
33593;SDS011;19920;52.242;20.940;2023-02-11T13:15:05;72.07;;;36.33;;
33593;SDS011;19920;52.242;20.940;2023-02-11T13:17:39;74.68;;;34.45;;
33593;SDS011;19920;52.242;20.940;2023-02-11T13:20:37;77.47;;;36.63;;
33593;SDS011;19920;52.242;20.940;2023-02-11T13:23:34;76.30;;;35.17;;
33593;SDS011;19920;52.242;20.940;2023-02-11T13:26:26;76.88;;;35.58;;
33593;SDS011;19920;52.242;20.940;2023-02-11T13:29:00;79.28;;;37.47;;
33593;SDS011;19920;52.242;20.940;2023-02-11T13:31:51;73.70;;;35.30;;
33593;SDS011;19920;52.242;20.940;2023-02-11T13:34:24;77.05;;;36.42;;
33593;SDS011;19920;52.242;20.940;2023-02-11T13:39:55;75.13;;;35.28;;
33593;SDS011;19920;52.242;20.940;2023-02-11T13:42:26;76.95;;;36.58;;
33593;SDS011;19920;52.242;20.940;2023-02-11T13:44:53;77.97;;;37.83;;
33593;SDS011;19920;52.242;20.940;2023-02-11T13:47:32;78.80;;;36.95;;
33593;SDS011;19920;52.242;20.940;2023-02-11T13:49:59;79.10;;;36.70;;
33593;SDS011;19920;52.242;20.940;2023-02-11T13:52:29;83.72;;;38.20;;
33593;SDS011;19920;52.242;20.940;2023-02-11T13:57:36;78.10;;;38.05;;
33593;SDS011;19920;52.242;20.940;2023-02-11T14:06:11;83.95;;;37.50;;
33593;SDS011;19920;52.242;20.940;2023-02-11T14:14:28;84.90;;;37.25;;
33593;SDS011;19920;52.242;20.940;2023-02-11T14:22:02;80.47;;;36.10;;
33593;SDS011;19920;52.242;20.940;2023-02-11T14:26:57;83.57;;;37.85;;
33593;SDS011;19920;52.242;20.940;2023-02-11T14:29:33;79.65;;;37.70;;
33593;SDS011;19920;52.242;20.940;2023-02-11T14:43:18;82.90;;;37.63;;
33593;SDS011;19920;52.242;20.940;2023-02-11T14:45:53;77.35;;;37.08;;
33593;SDS011;19920;52.242;20.940;2023-02-11T14:48:28;78.05;;;37.75;;
33593;SDS011;19920;52.242;20.940;2023-02-11T14:53:43;77.20;;;37.40;;
33593;SDS011;19920;52.242;20.940;2023-02-11T14:56:23;77.90;;;36.33;;
33593;SDS011;19920;52.242;20.940;2023-02-11T14:58:55;76.50;;;35.35;;
33593;SDS011;19920;52.242;20.940;2023-02-11T15:01:29;78.85;;;36.92;;
33593;SDS011;19920;52.242;20.940;2023-02-11T15:03:57;79.18;;;37.05;;
33593;SDS011;19920;52.242;20.940;2023-02-11T15:06:37;80.70;;;35.15;;
33593;SDS011;19920;52.242;20.940;2023-02-11T15:09:06;79.35;;;36.33;;
33593;SDS011;19920;52.242;20.940;2023-02-11T15:11:42;83.72;;;38.10;;
33593;SDS011;19920;52.242;20.940;2023-02-11T15:14:22;74.70;;;36.58;;
33593;SDS011;19920;52.242;20.940;2023-02-11T15:16:50;76.07;;;37.03;;
33593;SDS011;19920;52.242;20.940;2023-02-11T15:21:46;75.95;;;38.03;;
33593;SDS011;19920;52.242;20.940;2023-02-11T15:26:56;82.97;;;37.03;;
33593;SDS011;19920;52.242;20.940;2023-02-11T15:29:24;77.30;;;36.85;;
33593;SDS011;19920;52.242;20.940;2023-02-11T15:32:13;77.28;;;38.63;;
33593;SDS011;19920;52.242;20.940;2023-02-11T15:34:41;87.25;;;38.40;;
33593;SDS011;19920;52.242;20.940;2023-02-11T15:37:09;85.65;;;38.38;;
33593;SDS011;19920;52.242;20.940;2023-02-11T15:39:39;80.28;;;39.08;;
33593;SDS011;19920;52.242;20.940;2023-02-11T15:44:45;73.47;;;35.35;;
33593;SDS011;19920;52.242;20.940;2023-02-11T15:47:11;78.50;;;36.78;;
33593;SDS011;19920;52.242;20.940;2023-02-11T15:49:43;70.68;;;35.13;;
33593;SDS011;19920;52.242;20.940;2023-02-11T15:52:11;71.03;;;35.38;;
33593;SDS011;19920;52.242;20.940;2023-02-11T15:54:38;71.60;;;33.72;;
33593;SDS011;19920;52.242;20.940;2023-02-11T15:57:10;73.40;;;35.47;;
33593;SDS011;19920;52.242;20.940;2023-02-11T16:02:15;69.65;;;33.10;;
33593;SDS011;19920;52.242;20.940;2023-02-11T16:04:48;68.15;;;32.75;;
33593;SDS011;19920;52.242;20.940;2023-02-11T16:10:30;68.93;;;32.60;;
33593;SDS011;19920;52.242;20.940;2023-02-11T16:18:02;70.55;;;32.20;;
33593;SDS011;19920;52.242;20.940;2023-02-11T16:20:29;74.18;;;33.38;;
33593;SDS011;19920;52.242;20.940;2023-02-11T16:22:55;60.70;;;30.98;;
33593;SDS011;19920;52.242;20.940;2023-02-11T16:25:21;64.40;;;32.65;;
33593;SDS011;19920;52.242;20.940;2023-02-11T16:27:48;64.78;;;33.65;;
33593;SDS011;19920;52.242;20.940;2023-02-11T16:32:51;64.93;;;30.90;;
33593;SDS011;19920;52.242;20.940;2023-02-11T16:35:18;64.00;;;31.70;;
33593;SDS011;19920;52.242;20.940;2023-02-11T16:37:43;64.97;;;31.88;;
33593;SDS011;19920;52.242;20.940;2023-02-11T16:40:10;67.32;;;33.08;;
33593;SDS011;19920;52.242;20.940;2023-02-11T16:42:36;60.85;;;30.17;;
33593;SDS011;19920;52.242;20.940;2023-02-11T16:45:02;58.10;;;29.67;;
33593;SDS011;19920;52.242;20.940;2023-02-11T16:47:28;59.97;;;30.05;;
33593;SDS011;19920;52.242;20.940;2023-02-11T16:49:55;54.97;;;29.70;;
33593;SDS011;19920;52.242;20.940;2023-02-11T16:52:21;54.10;;;28.02;;
33593;SDS011;19920;52.242;20.940;2023-02-11T16:54:47;53.13;;;28.67;;
33593;SDS011;19920;52.242;20.940;2023-02-11T16:57:14;54.17;;;28.65;;
33593;SDS011;19920;52.242;20.940;2023-02-11T16:59:47;55.17;;;28.80;;
33593;SDS011;19920;52.242;20.940;2023-02-11T17:02:27;51.22;;;27.65;;
33593;SDS011;19920;52.242;20.940;2023-02-11T17:04:56;51.60;;;26.98;;
33593;SDS011;19920;52.242;20.940;2023-02-11T17:07:24;50.42;;;27.00;;
33593;SDS011;19920;52.242;20.940;2023-02-11T17:09:50;53.38;;;26.92;;
33593;SDS011;19920;52.242;20.940;2023-02-11T17:12:16;47.10;;;25.65;;
33593;SDS011;19920;52.242;20.940;2023-02-11T17:14:42;43.15;;;25.33;;
33593;SDS011;19920;52.242;20.940;2023-02-11T17:17:08;47.92;;;26.60;;